Time;durP1;ratioP1;P1;durP2;ratioP2;P2;SDS_P1;SDS_P2;PMS_P1;PMS_P2;Temp;Humidity;BMP_temperature;BMP_pressure;BME280_temperature;BME280_humidity;BME280_pressure;Samples;Min_cycle;Max_cycle;Signal;HPM_P1;HPM_P2
2022/12/19 00:01:31;;;;;;;35.40;16.85;;;;;;;0.62;100.00;101857.94;4973969;28;20438;-65
2022/12/19 00:04:00;;;;;;;45.45;21.10;;;;;;;0.65;100.00;101863.00;4982450;28;20043;-66
2022/12/19 00:06:28;;;;;;;38.97;18.88;;;;;;;0.71;100.00;101854.19;4977250;28;20059;-66
2022/12/19 00:08:55;;;;;;;34.80;17.97;;;;;;;0.67;100.00;101858.63;4981584;28;20061;-66
2022/12/19 00:11:22;;;;;;;41.00;20.80;;;;;;;0.73;100.00;101863.56;4981522;28;20323;-66
2022/12/19 00:13:49;;;;;;;38.33;19.33;;;;;;;0.75;100.00;101858.34;4981732;28;20062;-66
2022/12/19 00:16:19;;;;;;;41.92;20.80;;;;;;;0.80;100.00;101846.06;4984918;28;20054;-67
2022/12/19 00:18:47;;;;;;;38.85;19.58;;;;;;;0.81;100.00;101847.78;4973980;28;20056;-66
2022/12/19 00:21:16;;;;;;;34.28;18.52;;;;;;;0.85;100.00;101831.25;4978314;28;20050;-66
2022/12/19 00:23:43;;;;;;;38.67;18.55;;;;;;;0.84;100.00;101841.63;4979460;28;20050;-67
2022/12/19 00:26:24;;;;;;;41.50;20.42;;;;;;;0.76;100.00;101827.25;4983508;28;20053;-67
2022/12/19 00:28:57;;;;;;;31.80;16.38;;;;;;;0.73;100.00;101835.16;4965512;28;20474;-66
2022/12/19 00:31:25;;;;;;;43.47;20.13;;;;;;;0.77;100.00;101838.47;4973882;28;20050;-65
2022/12/19 00:33:52;;;;;;;;;;;;;;;0.77;100.00;101820.38;4984166;28;20330;-66
2022/12/19 00:36:25;;;;;;;32.75;16.67;;;;;;;0.76;100.00;101816.09;4975036;28;19921;-66
2022/12/19 00:38:53;;;;;;;42.05;21.10;;;;;;;0.70;100.00;101809.44;4985559;28;20050;-66
2022/12/19 00:41:23;;;;;;;38.80;20.20;;;;;;;0.76;100.00;101808.34;4975702;28;20054;-66
2022/12/19 00:43:54;;;;;;;37.53;18.02;;;;;;;0.74;100.00;101798.06;4980442;28;20038;-66
2022/12/19 00:46:21;;;;;;;38.63;19.35;;;;;;;0.76;100.00;101780.78;4979920;28;20060;-66
2022/12/19 00:48:48;;;;;;;37.67;19.55;;;;;;;0.83;100.00;101780.56;4989227;28;20160;-65
2022/12/19 00:51:19;;;;;;;39.55;18.83;;;;;;;0.84;100.00;101783.06;4986235;28;20054;-66
2022/12/19 00:53:47;;;;;;;38.95;20.33;;;;;;;0.78;100.00;101786.75;4964290;28;20567;-66
2022/12/19 00:56:16;;;;;;;41.25;19.90;;;;;;;0.76;100.00;101787.69;4978286;28;20046;-66
2022/12/19 00:58:43;;;;;;;;;;;;;;;0.85;100.00;101769.25;4984652;28;20054;-66
2022/12/19 01:01:18;;;;;;;38.33;19.08;;;;;;;0.84;100.00;101766.72;4978058;28;19922;-66
2022/12/19 01:03:46;;;;;;;37.47;19.15;;;;;;;0.75;100.00;101749.88;4980992;28;20479;-66
2022/12/19 01:06:32;;;;;;;37.55;17.58;;;;;;;0.81;100.00;101728.97;4989130;28;20056;-65
2022/12/19 01:08:59;;;;;;;32.65;15.80;;;;;;;0.75;100.00;101739.53;4981085;28;20046;-65
2022/12/19 01:14:12;;;;;;;42.08;20.20;;;;;;;0.86;100.00;101728.75;4981024;28;20053;-65
2022/12/19 01:16:47;;;;;;;35.92;16.48;;;;;;;0.79;100.00;101741.09;4979437;28;20057;-65
2022/12/19 01:19:14;;;;;;;36.58;18.90;;;;;;;0.86;100.00;101741.69;4991028;28;20042;-65
2022/12/19 01:21:41;;;;;;;36.53;19.38;;;;;;;0.89;100.00;101733.81;4965238;28;20061;-65
2022/12/19 01:24:09;;;;;;;37.53;18.70;;;;;;;0.94;100.00;101749.97;4985844;28;20053;-65
2022/12/19 01:26:35;;;;;;;37.03;19.10;;;;;;;0.96;100.00;101749.00;4990030;28;20267;-65
2022/12/19 01:29:03;;;;;;;38.90;19.25;;;;;;;0.96;100.00;101751.59;4984448;28;20073;-65
2022/12/19 01:31:29;;;;;;;38.95;20.35;;;;;;;0.94;100.00;101740.50;4990027;28;20061;-65
2022/12/19 01:33:58;;;;;;;35.92;18.92;;;;;;;0.98;100.00;101738.59;4976171;28;20073;-65
2022/12/19 01:36:25;;;;;;;34.38;18.30;;;;;;;0.98;100.00;101723.09;4958865;28;20616;-65
2022/12/19 01:38:55;;;;;;;38.38;19.27;;;;;;;1.10;100.00;101720.03;4968879;28;20097;-65
2022/12/19 01:41:21;;;;;;;36.70;19.48;;;;;;;1.10;100.00;101716.63;4987216;28;20059;-65
2022/12/19 01:43:56;;;;;;;40.50;19.58;;;;;;;1.15;100.00;101725.84;4979135;28;20046;-66
2022/12/19 01:46:32;;;;;;;37.55;19.77;;;;;;;1.18;100.00;101724.88;4988508;28;20376;-66
2022/12/19 01:49:00;;;;;;;38.70;19.55;;;;;;;1.14;100.00;101720.75;4969650;28;20139;-64
2022/12/19 01:51:36;;;;;;;43.15;20.95;;;;;;;1.23;100.00;101720.34;4980957;28;20050;-66
2022/12/19 01:54:06;;;;;;;41.25;19.65;;;;;;;1.22;100.00;101715.25;4984719;28;20050;-66
2022/12/19 01:56:38;;;;;;;41.53;21.45;;;;;;;1.25;100.00;101713.38;4980824;28;20058;-65
2022/12/19 01:59:09;;;;;;;41.83;20.38;;;;;;;1.28;100.00;101702.06;4987618;28;20061;-65
2022/12/19 02:01:38;;;;;;;38.65;19.85;;;;;;;1.29;100.00;101712.31;4982721;28;20419;-63
2022/12/19 02:04:18;;;;;;;42.25;20.27;;;;;;;1.31;100.00;101702.78;4972889;28;20060;-64
2022/12/19 02:06:46;;;;;;;39.17;20.05;;;;;;;1.34;100.00;101701.81;4982605;28;20101;-64
2022/12/19 02:09:13;;;;;;;43.20;20.40;;;;;;;1.33;100.00;101698.41;4991172;28;20052;-63
2022/12/19 02:11:39;;;;;;;42.05;20.88;;;;;;;1.34;100.00;101691.47;4988784;28;20050;-62
2022/12/19 02:14:06;;;;;;;41.95;20.42;;;;;;;1.39;100.00;101705.03;4975415;28;20050;-62
2022/12/19 02:16:50;;;;;;;37.65;19.20;;;;;;;1.42;100.00;101698.91;4989196;28;20081;-65
2022/12/19 02:19:48;;;;;;;40.75;20.08;;;;;;;1.52;100.00;101682.91;4972016;28;20767;-62
2022/12/19 02:22:26;;;;;;;39.22;19.17;;;;;;;1.53;100.00;101694.09;4985425;28;20491;-63
2022/12/19 02:25:08;;;;;;;34.05;18.40;;;;;;;1.53;100.00;101684.59;4989937;28;20153;-62
2022/12/19 02:28:00;;;;;;;40.47;20.15;;;;;;;1.56;100.00;101684.47;4996612;28;20491;-63
2022/12/19 02:30:48;;;;;;;41.15;19.67;;;;;;;1.55;100.00;101677.63;4951827;28;20132;-63
2022/12/19 02:33:24;;;;;;;38.00;18.57;;;;;;;1.56;100.00;101666.34;4983171;28;20042;-62
2022/12/19 02:36:00;;;;;;;44.38;21.20;;;;;;;1.54;100.00;101685.44;4980286;28;20064;-62
2022/12/19 02:38:33;;;;;;;37.47;19.13;;;;;;;1.58;100.00;101679.22;4992120;28;20733;-62
2022/12/19 02:41:09;;;;;;;39.50;19.88;;;;;;;1.64;100.00;101670.34;4983684;28;20108;-62
2022/12/19 02:43:41;;;;;;;43.30;20.80;;;;;;;1.62;100.00;101665.25;4992011;28;20137;-62
2022/12/19 02:46:09;;;;;;;40.03;18.35;;;;;;;1.64;100.00;101675.53;4976564;28;20296;-63
2022/12/19 02:48:36;;;;;;;38.65;18.48;;;;;;;1.62;100.00;101667.84;4995815;28;20077;-62
2022/12/19 02:51:03;;;;;;;41.25;19.73;;;;;;;1.62;100.00;101677.34;4991987;28;20049;-63
2022/12/19 02:53:30;;;;;;;40.88;20.10;;;;;;;1.65;100.00;101669.47;4980135;28;20058;-63
2022/12/19 02:56:21;;;;;;;43.17;20.85;;;;;;;1.70;100.00;101668.31;4987464;28;20105;-62
2022/12/19 02:59:10;;;;;;;38.28;19.33;;;;;;;1.74;100.00;101651.75;4974629;28;20068;-63
2022/12/19 03:01:45;;;;;;;40.70;19.88;;;;;;;1.81;100.00;101659.28;4985007;28;20050;-63
2022/12/19 03:04:23;;;;;;;39.28;19.27;;;;;;;1.78;100.00;101652.47;4981531;28;20422;-62
2022/12/19 03:07:29;;;;;;;38.22;19.80;;;;;;;1.83;100.00;101627.25;4987761;28;20054;-63
2022/12/19 03:10:07;;;;;;;41.00;19.67;;;;;;;1.89;100.00;101641.66;4989365;28;20050;-62
2022/12/19 03:12:46;;;;;;;39.65;19.70;;;;;;;1.89;100.00;101615.78;4978928;28;20538;-62
2022/12/19 03:15:13;;;;;;;39.35;20.67;;;;;;;1.84;100.00;101628.91;4973010;28;20042;-62
2022/12/19 03:17:40;;;;;;;36.60;19.17;;;;;;;1.86;100.00;101631.41;4987997;28;20058;-65
2022/12/19 03:20:39;;;;;;;34.60;17.05;;;;;;;1.95;100.00;101620.66;4983813;28;20050;-62
2022/12/19 03:23:05;;;;;;;41.60;19.52;;;;;;;1.86;100.00;101616.75;4984430;28;20104;-62
2022/12/19 03:25:33;;;;;;;40.85;20.77;;;;;;;1.81;100.00;101618.72;4980832;28;20384;-63
2022/12/19 03:28:10;;;;;;;38.63;18.70;;;;;;;1.97;100.00;101604.13;4974955;28;20093;-62
2022/12/19 03:30:40;;;;;;;41.30;18.77;;;;;;;1.94;100.00;101621.56;4991217;28;20246;-61
2022/12/19 03:33:10;;;;;;;37.67;19.30;;;;;;;2.04;100.00;101606.44;4982666;28;20308;-62
2022/12/19 03:35:38;;;;;;;33.47;17.13;;;;;;;1.96;100.00;101610.25;4980860;28;20100;-61
2022/12/19 03:38:05;;;;;;;39.33;19.88;;;;;;;2.05;100.00;101590.84;4985026;28;20046;-62
2022/12/19 03:40:35;;;;;;;37.10;17.50;;;;;;;2.08;100.00;101606.25;4988444;28;20054;-63
2022/12/19 03:43:08;;;;;;;30.73;15.05;;;;;;;2.10;100.00;101608.75;4987820;28;20051;-63
2022/12/19 03:45:55;;;;;;;38.63;19.20;;;;;;;2.11;100.00;101607.84;4982579;28;20418;-63
2022/12/19 03:48:29;;;;;;;38.25;20.38;;;;;;;2.10;100.00;101601.00;4985458;28;20562;-64
2022/12/19 03:51:28;;;;;;;40.22;19.80;;;;;;;2.19;100.00;101585.00;4980713;28;20564;-63
2022/12/19 03:53:59;;;;;;;33.15;17.02;;;;;;;2.08;100.00;101601.06;4983472;28;20120;-63
2022/12/19 03:56:41;;;;;;;34.15;18.17;;;;;;;2.20;100.00;101581.53;4980004;28;20558;-63
2022/12/19 03:59:58;;;;;;;44.60;20.40;;;;;;;2.21;100.00;101588.34;4988120;28;20554;-64
2022/12/19 04:02:26;;;;;;;31.53;17.17;;;;;;;2.21;100.00;101572.00;4944941;28;20058;-63
2022/12/19 04:04:57;;;;;;;38.92;18.60;;;;;;;2.27;100.00;101590.66;4987436;28;20050;-64
2022/12/19 04:07:24;;;;;;;39.08;19.35;;;;;;;2.26;100.00;101570.03;4974477;28;20050;-64
2022/12/19 04:09:53;;;;;;;41.83;19.23;;;;;;;2.34;100.00;101579.09;4974175;28;20053;-64
2022/12/19 04:12:27;;;;;;;34.60;17.85;;;;;;;2.38;100.00;101583.22;4980618;28;20046;-64
2022/12/19 04:14:53;;;;;;;31.30;16.65;;;;;;;2.44;100.00;101581.25;4983843;28;20096;-64
2022/12/19 04:17:43;;;;;;;34.20;18.08;;;;;;;2.50;100.00;101570.59;4990592;28;20077;-64
2022/12/19 04:20:14;;;;;;;31.73;17.65;;;;;;;2.53;100.00;101573.88;4981057;28;20061;-64
2022/12/19 04:22:50;;;;;;;32.13;16.40;;;;;;;2.55;100.00;101581.56;4983868;28;20053;-64
2022/12/19 04:25:22;;;;;;;31.60;17.58;;;;;;;2.60;100.00;101570.97;4982028;28;20050;-64
2022/12/19 04:27:59;;;;;;;35.90;17.77;;;;;;;2.58;100.00;101569.28;4989166;28;20054;-64
2022/12/19 04:30:26;;;;;;;37.63;17.95;;;;;;;2.59;100.00;101554.59;4983939;28;20400;-63
2022/12/19 04:32:52;;;;;;;30.98;17.50;;;;;;;2.67;100.00;101560.22;4995747;28;20105;-64
2022/12/19 04:35:19;;;;;;;28.67;15.55;;;;;;;2.64;100.00;101556.94;4979857;28;20057;-65
2022/12/19 04:37:45;;;;;;;36.50;17.75;;;;;;;2.69;100.00;101537.66;4988729;28;20060;-64
2022/12/19 04:40:12;;;;;;;29.75;16.63;;;;;;;2.74;100.00;101551.22;4987778;28;20046;-64
2022/12/19 04:42:39;;;;;;;29.13;16.02;;;;;;;2.75;100.00;101544.28;4986600;28;20495;-64
2022/12/19 04:45:05;;;;;;;31.95;15.35;;;;;;;2.81;100.00;101545.72;4999247;28;20053;-64
2022/12/19 04:47:33;;;;;;;32.60;17.25;;;;;;;2.85;100.00;101548.09;4981853;28;20054;-64
2022/12/19 04:49:59;;;;;;;30.50;15.70;;;;;;;2.86;100.00;101547.19;4986964;28;20050;-64
2022/12/19 04:52:25;;;;;;;28.70;16.10;;;;;;;2.90;100.00;101524.50;4983733;28;20522;-64
2022/12/19 04:54:52;;;;;;;28.55;14.23;;;;;;;2.87;100.00;101554.03;4989119;28;20074;-64
2022/12/19 04:57:18;;;;;;;28.55;15.75;;;;;;;2.92;100.00;101552.03;4988487;28;20065;-64
2022/12/19 04:59:45;;;;;;;27.92;15.10;;;;;;;2.96;100.00;101534.59;4985110;28;20523;-64
2022/12/19 05:02:11;;;;;;;27.65;15.00;;;;;;;3.01;100.00;101535.16;4988802;28;20109;-64
2022/12/19 05:04:38;;;;;;;30.83;15.57;;;;;;;3.06;100.00;101533.19;4979372;28;20542;-64
2022/12/19 05:07:04;;;;;;;27.02;15.35;;;;;;;3.10;100.00;101545.06;4988713;28;20506;-64
2022/12/19 05:09:30;;;;;;;23.50;13.75;;;;;;;3.15;100.00;101537.88;4979587;28;20084;-64
2022/12/19 05:11:57;;;;;;;28.42;15.85;;;;;;;3.17;100.00;101545.56;4992768;28;20052;-64
2022/12/19 05:14:23;;;;;;;26.58;14.40;;;;;;;3.23;100.00;101537.47;4991389;28;20054;-64
2022/12/19 05:16:49;;;;;;;24.73;14.32;;;;;;;3.23;100.00;101527.09;4978323;28;20046;-64
2022/12/19 05:19:21;;;;;;;25.63;14.35;;;;;;;3.25;100.00;101530.44;4987318;28;20498;-64
2022/12/19 05:21:47;;;;;;;24.52;13.48;;;;;;;3.27;100.00;101526.00;4981779;28;20156;-64
2022/12/19 05:24:14;;;;;;;26.83;15.10;;;;;;;3.32;100.00;101529.19;4992495;28;20045;-64
2022/12/19 05:26:40;;;;;;;24.15;13.80;;;;;;;3.35;100.00;101521.28;4977808;28;20068;-64
2022/12/19 05:29:07;;;;;;;24.13;13.82;;;;;;;3.38;100.00;101522.84;4988058;28;20105;-63
2022/12/19 05:31:34;;;;;;;28.83;13.85;;;;;;;3.45;100.00;101520.75;4993010;28;20112;-64
2022/12/19 05:34:00;;;;;;;27.27;14.10;;;;;;;3.45;100.00;101519.00;4985755;28;20425;-64
2022/12/19 05:36:27;;;;;;;23.67;12.82;;;;;;;3.52;100.00;101522.09;4995069;28;20462;-64
2022/12/19 05:38:58;;;;;;;23.50;13.95;;;;;;;3.55;100.00;101525.38;4991490;28;20499;-64
2022/12/19 05:41:24;;;;;;;24.95;13.98;;;;;;;3.60;100.00;101525.09;4999655;28;20060;-64
2022/12/19 05:43:52;;;;;;;21.85;13.15;;;;;;;3.68;100.00;101525.53;4977314;28;20498;-64
2022/12/19 05:46:20;;;;;;;23.73;13.93;;;;;;;3.68;100.00;101519.50;4996613;28;20137;-64
2022/12/19 05:48:47;;;;;;;25.20;14.30;;;;;;;3.71;100.00;101529.72;4993590;28;20117;-64
2022/12/19 05:51:14;;;;;;;26.15;14.88;;;;;;;3.71;100.00;101524.53;4984216;28;20058;-64
2022/12/19 05:53:41;;;;;;;24.23;13.93;;;;;;;3.76;100.00;101523.34;4980285;28;20104;-64
2022/12/19 05:56:08;;;;;;;22.73;12.63;;;;;;;3.79;100.00;101524.09;4953958;28;20058;-64
2022/12/19 05:58:37;;;;;;;25.45;13.25;;;;;;;3.84;100.00;101522.94;4988295;28;20054;-64
2022/12/19 06:01:09;;;;;;;22.17;13.40;;;;;;;3.89;100.00;101515.72;4982135;28;20046;-65
2022/12/19 06:03:35;;;;;;;22.13;12.52;;;;;;;3.91;100.00;101513.88;4984104;28;20057;-65
2022/12/19 06:06:03;;;;;;;22.50;12.27;;;;;;;3.91;100.00;101513.88;4989142;28;20057;-65
2022/12/19 06:08:30;;;;;;;21.63;11.95;;;;;;;3.95;100.00;101524.91;4979403;28;20149;-65
2022/12/19 06:10:59;;;;;;;19.33;11.82;;;;;;;3.97;100.00;101521.31;4992188;28;20141;-65
2022/12/19 06:13:26;;;;;;;20.65;11.70;;;;;;;4.02;100.00;101523.66;4980545;28;20104;-65
2022/12/19 06:16:20;;;;;;;19.48;10.38;;;;;;;4.09;100.00;101521.53;4987939;28;20046;-65
2022/12/19 06:18:47;;;;;;;17.70;10.57;;;;;;;4.07;100.00;101520.78;4975544;28;20054;-65
2022/12/19 06:21:16;;;;;;;18.35;10.88;;;;;;;4.13;100.00;101517.84;4989928;28;20054;-65
2022/12/19 06:23:43;;;;;;;15.43;9.10;;;;;;;4.12;100.00;101521.38;4976494;28;20109;-65
2022/12/19 06:26:13;;;;;;;17.80;10.38;;;;;;;4.13;100.00;101521.25;4983447;28;20050;-65
2022/12/19 06:28:45;;;;;;;14.38;10.00;;;;;;;4.14;100.00;101532.50;4987503;28;20051;-64
2022/12/19 06:31:12;;;;;;;15.07;9.05;;;;;;;4.23;100.00;101518.16;4986982;28;20046;-65
2022/12/19 06:33:39;;;;;;;19.60;10.45;;;;;;;4.24;100.00;101525.03;4987763;28;20654;-65
2022/12/19 06:36:10;;;;;;;15.82;9.45;;;;;;;4.28;100.00;101521.34;4976597;28;20042;-64
2022/12/19 06:38:36;;;;;;;15.60;9.88;;;;;;;4.30;100.00;101515.13;4964442;28;20051;-65
2022/12/19 06:43:49;;;;;;;15.68;10.48;;;;;;;4.38;100.00;101514.66;4980845;28;20657;-64
2022/12/19 06:46:19;;;;;;;17.60;10.50;;;;;;;4.42;100.00;101510.13;4989916;28;20523;-65
2022/12/19 06:48:45;;;;;;;17.42;10.30;;;;;;;4.48;100.00;101521.00;4986485;28;20054;-64
2022/12/19 06:51:11;;;;;;;17.33;11.23;;;;;;;4.60;100.00;101514.25;4981965;28;20068;-65
2022/12/19 06:53:39;;;;;;;17.67;10.93;;;;;;;4.71;100.00;101516.22;4976604;28;20065;-65
2022/12/19 06:56:06;;;;;;;19.40;11.27;;;;;;;4.83;100.00;101517.25;4976206;28;20092;-65
2022/12/19 06:58:32;;;;;;;18.58;11.30;;;;;;;4.91;100.00;101515.84;4979431;28;20054;-65
2022/12/19 07:01:00;;;;;;;19.48;10.95;;;;;;;5.01;100.00;101526.53;4986934;28;20058;-65
2022/12/19 07:03:35;;;;;;;18.77;11.20;;;;;;;5.14;100.00;101529.22;4987550;28;20729;-65
2022/12/19 07:06:03;;;;;;;18.40;10.52;;;;;;;5.22;100.00;101515.75;4984349;28;20089;-65
2022/12/19 07:08:29;;;;;;;16.88;10.57;;;;;;;5.31;100.00;101517.78;4998391;28;20061;-65
2022/12/19 07:10:57;;;;;;;17.45;10.20;;;;;;;5.37;100.00;101512.22;4982733;28;20060;-64
2022/12/19 07:13:23;;;;;;;18.17;10.82;;;;;;;5.43;100.00;101524.84;4981156;28;20758;-65
2022/12/19 07:15:53;;;;;;;20.23;10.77;;;;;;;5.47;100.00;101515.91;4979659;28;20050;-65
2022/12/19 07:18:19;;;;;;;19.60;10.85;;;;;;;5.45;100.00;101522.09;4984970;28;20419;-65
2022/12/19 07:20:46;;;;;;;16.08;10.45;;;;;;;5.45;100.00;101519.50;4975240;28;20466;-65
2022/12/19 07:23:16;;;;;;;17.20;9.82;;;;;;;5.54;100.00;101531.94;4987443;28;20050;-65
2022/12/19 07:25:43;;;;;;;16.45;10.23;;;;;;;5.50;100.00;101527.88;4987187;28;20470;-65
2022/12/19 07:28:09;;;;;;;15.52;10.43;;;;;;;5.54;100.00;101542.38;4982654;28;20458;-65
2022/12/19 07:30:36;;;;;;;14.77;9.32;;;;;;;5.55;100.00;101518.84;4990351;28;20053;-65
2022/12/19 07:33:02;;;;;;;16.88;10.15;;;;;;;5.59;100.00;101529.91;4975560;28;20523;-65
2022/12/19 07:35:29;;;;;;;17.73;9.30;;;;;;;5.63;100.00;101535.75;4978664;28;20054;-65
2022/12/19 07:38:03;;;;;;;14.80;9.10;;;;;;;5.70;100.00;101524.00;4989154;28;20567;-65
2022/12/19 07:40:29;;;;;;;16.23;10.25;;;;;;;5.70;100.00;101535.28;4982344;28;20089;-66
2022/12/19 07:43:04;;;;;;;15.45;9.90;;;;;;;5.78;100.00;101531.34;4986660;28;20053;-65
2022/12/19 07:45:31;;;;;;;14.35;8.68;;;;;;;5.77;100.00;101529.69;4991281;28;20462;-65
2022/12/19 07:48:02;;;;;;;16.85;9.90;;;;;;;5.81;100.00;101528.56;4986019;28;20061;-65
2022/12/19 07:50:29;;;;;;;17.95;11.15;;;;;;;5.82;100.00;101525.84;4986772;28;20050;-65
2022/12/19 07:52:57;;;;;;;15.70;9.05;;;;;;;5.86;100.00;101523.84;4989340;28;20046;-65
2022/12/19 07:55:24;;;;;;;14.77;8.88;;;;;;;5.90;100.00;101527.94;4986993;28;20057;-65
2022/12/19 07:57:57;;;;;;;15.25;8.55;;;;;;;5.96;100.00;101522.41;4992178;28;20050;-65
2022/12/19 08:00:23;;;;;;;15.30;8.35;;;;;;;5.98;100.00;101525.72;4988032;28;20069;-65
2022/12/19 08:02:50;;;;;;;12.13;8.20;;;;;;;6.02;100.00;101527.19;4963683;28;20054;-65
2022/12/19 08:05:16;;;;;;;11.05;7.38;;;;;;;6.09;100.00;101531.06;4991966;28;20082;-65
2022/12/19 08:07:43;;;;;;;14.93;6.50;;;;;;;6.20;100.00;101538.19;4984753;28;20065;-66
2022/12/19 08:10:11;;;;;;;12.88;8.10;;;;;;;6.27;100.00;101520.38;4995020;28;20085;-67
2022/12/19 08:12:37;;;;;;;11.45;7.35;;;;;;;6.36;100.00;101529.38;4964415;28;20050;-66
2022/12/19 08:15:04;;;;;;;12.30;6.75;;;;;;;6.46;100.00;101536.47;4985007;28;20601;-66
2022/12/19 08:17:33;;;;;;;14.68;8.00;;;;;;;6.52;100.00;101533.44;4981398;28;20471;-67
2022/12/19 08:19:59;;;;;;;12.82;8.18;;;;;;;6.57;100.00;101543.56;4995454;28;20061;-67
2022/12/19 08:22:28;;;;;;;14.35;8.23;;;;;;;6.65;100.00;101540.44;4992313;28;20049;-67
2022/12/19 08:24:54;;;;;;;12.95;7.05;;;;;;;6.61;100.00;101550.25;4981888;28;20517;-67
2022/12/19 08:27:20;;;;;;;12.40;7.10;;;;;;;6.63;100.00;101550.16;4990014;28;20506;-67
2022/12/19 08:29:47;;;;;;;12.25;7.82;;;;;;;6.65;100.00;101554.31;4980259;28;20459;-66
2022/12/19 08:32:15;;;;;;;13.40;7.30;;;;;;;6.71;100.00;101558.28;4971012;28;20054;-68
2022/12/19 08:34:47;;;;;;;12.90;6.68;;;;;;;6.69;100.00;101549.72;4951800;28;20069;-67
2022/12/19 08:37:16;;;;;;;9.60;5.53;;;;;;;6.71;100.00;101550.47;4988811;28;20087;-68
2022/12/19 08:39:43;;;;;;;11.55;6.18;;;;;;;6.73;100.00;101549.41;4989610;28;20065;-67
2022/12/19 08:42:09;;;;;;;10.00;6.18;;;;;;;6.71;100.00;101545.25;4986409;28;20422;-67
2022/12/19 08:44:35;;;;;;;11.23;6.43;;;;;;;6.79;100.00;101544.72;4982169;28;20054;-67
2022/12/19 08:47:02;;;;;;;12.27;6.30;;;;;;;6.83;100.00;101544.41;4988214;28;20058;-67
2022/12/19 08:49:28;;;;;;;12.25;6.93;;;;;;;6.85;100.00;101552.13;4985224;28;20046;-67
2022/12/19 08:51:55;;;;;;;9.55;6.13;;;;;;;6.87;100.00;101550.25;4981956;28;20505;-67
2022/12/19 08:54:21;;;;;;;10.90;6.63;;;;;;;6.90;100.00;101542.25;4967484;28;20046;-67
2022/12/19 08:56:47;;;;;;;9.05;6.05;;;;;;;6.93;100.00;101548.06;4990421;28;20758;-67
2022/12/19 08:59:14;;;;;;;10.75;6.30;;;;;;;6.95;100.00;101544.53;4973908;28;20439;-66
2022/12/19 09:01:56;;;;;;;9.02;6.00;;;;;;;6.93;100.00;101539.41;4968426;28;20671;-67
2022/12/19 09:04:22;;;;;;;9.43;6.18;;;;;;;6.95;100.00;101549.75;4973220;28;20874;-67
2022/12/19 09:07:09;;;;;;;9.05;6.20;;;;;;;6.95;100.00;101547.97;4985606;28;20391;-67
2022/12/19 09:09:35;;;;;;;11.60;6.03;;;;;;;6.94;100.00;101554.13;4981199;28;20430;-66
2022/12/19 09:12:02;;;;;;;12.43;6.30;;;;;;;6.93;100.00;101553.28;4981995;28;20054;-67
2022/12/19 09:14:32;;;;;;;10.73;6.03;;;;;;;6.97;100.00;101551.28;4975537;28;20061;-67
2022/12/19 09:16:59;;;;;;;11.15;6.65;;;;;;;6.93;100.00;101555.88;4983087;28;20054;-67
2022/12/19 09:19:28;;;;;;;11.10;6.15;;;;;;;6.96;100.00;101554.00;4981671;28;20112;-67
2022/12/19 09:21:54;;;;;;;8.88;5.97;;;;;;;6.94;100.00;101548.91;4973210;28;20066;-66
2022/12/19 09:24:21;;;;;;;9.80;6.47;;;;;;;6.97;100.00;101559.13;4969499;28;20046;-67
2022/12/19 09:26:47;;;;;;;11.30;6.18;;;;;;;6.96;100.00;101562.69;4982471;28;20059;-66
2022/12/19 09:29:14;;;;;;;10.35;6.22;;;;;;;6.96;100.00;101559.22;4986534;28;20325;-66
2022/12/19 09:31:47;;;;;;;10.85;7.18;;;;;;;6.96;100.00;101560.06;4983626;28;20423;-66
2022/12/19 09:34:21;;;;;;;8.82;5.78;;;;;;;6.96;100.00;101562.69;4978791;28;20121;-66
2022/12/19 09:36:49;;;;;;;;;;;;;;;6.98;100.00;101565.16;4988056;28;20042;-68
2022/12/19 09:39:17;;;;;;;11.48;6.68;;;;;;;6.99;100.00;101559.84;4975531;28;20008;-65
2022/12/19 09:42:13;;;;;;;11.55;6.68;;;;;;;7.00;100.00;101571.09;4984556;28;20446;-65
2022/12/19 09:45:10;;;;;;;10.73;6.50;;;;;;;7.00;100.00;101569.34;4975045;28;20323;-66
2022/12/19 09:47:49;;;;;;;10.10;6.53;;;;;;;6.96;100.00;101567.03;4977461;28;20079;-66
2022/12/19 09:50:52;;;;;;;11.95;6.78;;;;;;;7.05;100.00;101567.25;4981843;28;20466;-66
2022/12/19 09:54:00;;;;;;;11.60;5.97;;;;;;;7.06;100.00;101571.53;4958380;28;20046;-66
2022/12/19 09:56:30;;;;;;;11.32;5.57;;;;;;;7.06;100.00;101563.72;4976380;28;20050;-66
2022/12/19 09:59:29;;;;;;;10.52;5.93;;;;;;;7.07;100.00;101575.81;4986659;28;20054;-65
2022/12/19 10:02:29;;;;;;;9.50;6.23;;;;;;;7.08;100.00;101582.69;4978261;28;20178;-66
2022/12/19 10:05:05;;;;;;;7.53;5.63;;;;;;;7.13;100.00;101577.16;4984702;28;20292;-66
2022/12/19 10:07:52;;;;;;;10.18;6.20;;;;;;;7.11;100.00;101569.47;4971052;28;20105;-65
2022/12/19 10:10:54;;;;;;;9.88;6.57;;;;;;;7.14;100.00;101563.19;4990900;28;20498;-66
2022/12/19 10:14:08;;;;;;;10.55;5.50;;;;;;;7.16;100.00;101566.53;4980318;28;20109;-66
2022/12/19 10:16:59;;;;;;;10.73;6.38;;;;;;;7.17;100.00;101564.75;4990285;28;20414;-66
2022/12/19 10:20:08;;;;;;;10.25;6.75;;;;;;;7.19;100.00;101568.91;4977008;28;20308;-66
2022/12/19 10:23:20;;;;;;;9.43;6.25;;;;;;;7.22;100.00;101575.72;4981001;28;20496;-66
2022/12/19 10:26:22;;;;;;;10.00;6.47;;;;;;;7.20;100.00;101569.75;4975981;28;20050;-66
2022/12/19 10:29:16;;;;;;;10.30;6.10;;;;;;;7.19;100.00;101562.88;4986950;28;20097;-66
2022/12/19 10:32:22;;;;;;;11.27;7.15;;;;;;;7.20;100.00;101567.97;4986142;28;20050;-66
2022/12/19 10:34:50;;;;;;;11.13;5.82;;;;;;;7.20;100.00;101556.72;4972375;28;20050;-66
2022/12/19 10:37:20;;;;;;;9.85;6.63;;;;;;;7.25;100.00;101563.28;4979191;28;20050;-65
2022/12/19 10:40:31;;;;;;;7.93;5.55;;;;;;;7.29;100.00;101559.53;4993094;28;20454;-65
2022/12/19 10:43:04;;;;;;;9.93;5.93;;;;;;;7.30;100.00;101561.19;4976880;28;20046;-66
2022/12/19 10:45:47;;;;;;;10.18;6.45;;;;;;;7.33;100.00;101549.69;4986241;28;20050;-65
2022/12/19 10:48:19;;;;;;;13.45;6.28;;;;;;;7.37;100.00;101559.00;4976515;28;20104;-66
2022/12/19 10:50:55;;;;;;;10.15;5.57;;;;;;;7.36;100.00;101556.47;4984371;28;20050;-67
2022/12/19 10:53:27;;;;;;;10.27;6.00;;;;;;;7.44;100.00;101552.38;4974944;28;20156;-66
2022/12/19 10:56:00;;;;;;;8.80;6.53;;;;;;;7.44;100.00;101552.38;4985163;28;20046;-66
2022/12/19 10:58:37;;;;;;;12.70;6.07;;;;;;;7.48;100.00;101545.16;4968447;28;20057;-66
2022/12/19 11:01:19;;;;;;;9.07;5.38;;;;;;;7.56;100.00;101542.00;4979705;28;20050;-66
2022/12/19 11:03:50;;;;;;;8.65;5.45;;;;;;;7.56;100.00;101545.44;4975182;28;20154;-66
2022/12/19 11:06:33;;;;;;;8.95;5.65;;;;;;;7.63;100.00;101549.31;4984675;28;20462;-66
2022/12/19 11:09:23;;;;;;;8.85;5.50;;;;;;;7.64;100.00;101550.97;4988144;28;20058;-66
2022/12/19 11:12:19;;;;;;;10.00;5.60;;;;;;;7.69;100.00;101545.44;4981827;28;20404;-66
2022/12/19 11:15:14;;;;;;;9.82;5.05;;;;;;;7.68;100.00;101542.00;4977358;28;20578;-66
2022/12/19 11:18:08;;;;;;;8.90;5.60;;;;;;;7.71;100.00;101549.59;4974897;28;20089;-66
2022/12/19 11:21:18;;;;;;;9.05;5.63;;;;;;;7.72;100.00;101551.28;4976675;28;20093;-66
2022/12/19 11:24:22;;;;;;;9.82;5.68;;;;;;;7.74;100.00;101538.06;4980522;28;20561;-66
2022/12/19 11:27:30;;;;;;;10.45;6.20;;;;;;;7.76;100.00;101536.19;4979696;28;20590;-66
2022/12/19 11:30:21;;;;;;;14.48;6.75;;;;;;;7.75;100.00;101541.53;4985956;28;20117;-66
2022/12/19 11:33:16;;;;;;;10.18;5.82;;;;;;;7.71;100.00;101536.53;4982218;28;20057;-66
2022/12/19 11:35:51;;;;;;;8.45;5.63;;;;;;;7.74;100.00;101540.69;4984303;28;20054;-66
2022/12/19 11:38:30;;;;;;;10.40;5.97;;;;;;;7.75;100.00;101539.75;4983652;28;20053;-66
2022/12/19 11:40:58;;;;;;;;;;;;;;;7.78;100.00;101539.56;4983658;28;20521;-66
2022/12/19 11:43:39;;;;;;;13.30;6.10;;;;;;;7.79;100.00;101545.59;4981806;28;19945;-66
2022/12/19 11:46:35;;;;;;;8.55;5.25;;;;;;;7.80;100.00;101540.28;4991033;28;20065;-66
2022/12/19 11:49:18;;;;;;;7.97;5.18;;;;;;;7.84;100.00;101527.81;4983189;28;20487;-65